Time;durP1;ratioP1;P1;durP2;ratioP2;P2;SDS_P1;SDS_P2;PMS_P1;PMS_P2;Temp;Humidity;BMP_temperature;BMP_pressure;BME280_temperature;BME280_humidity;BME280_pressure;Samples;Min_cycle;Max_cycle;Signal;HPM_P1;HPM_P2
2022/10/31 00:01:37;;;;;;;24.70;12.55;;;;;;;;;;5073480;28;20218;-64
2022/10/31 00:04:03;;;;;;;24.80;13.02;;;;;;;;;;5071586;28;20041;-64
2022/10/31 00:06:29;;;;;;;24.70;13.25;;;;;;;;;;5073215;28;20049;-64
2022/10/31 00:09:00;;;;;;;24.42;13.30;;;;;;;;;;5071599;28;20072;-64
2022/10/31 00:11:26;;;;;;;21.63;12.40;;;;;;;;;;5071227;28;20590;-64
2022/10/31 00:13:52;;;;;;;28.48;13.18;;;;;;;;;;5072863;28;20060;-64
2022/10/31 00:16:20;;;;;;;24.60;12.73;;;;;;;;;;5071724;28;20056;-64
2022/10/31 00:18:49;;;;;;;29.88;12.63;;;;;;;;;;5072716;28;20039;-64
2022/10/31 00:21:15;;;;;;;21.17;12.02;;;;;;;;;;5073001;28;20036;-64
2022/10/31 00:23:41;;;;;;;24.58;12.70;;;;;;;;;;5073016;28;20047;-64
2022/10/31 00:26:07;;;;;;;23.38;12.48;;;;;;;;;;5072530;28;20045;-64
2022/10/31 00:28:33;;;;;;;22.75;13.27;;;;;;;;;;5072986;28;20115;-64
2022/10/31 00:31:02;;;;;;;24.02;13.30;;;;;;;;;;5072690;28;20474;-64
2022/10/31 00:33:28;;;;;;;20.42;11.88;;;;;;;;;;5071256;28;20048;-64
2022/10/31 00:35:54;;;;;;;20.80;12.43;;;;;;;;;;5072324;28;20404;-64
2022/10/31 00:38:20;;;;;;;23.73;12.60;;;;;;;;;;5071091;28;20040;-64
2022/10/31 00:40:46;;;;;;;24.77;12.20;;;;;;;;;;5072220;28;20051;-64
2022/10/31 00:43:12;;;;;;;23.90;12.05;;;;;;;;;;5071205;28;20045;-64
2022/10/31 00:45:38;;;;;;;24.60;11.93;;;;;;;;;;5072580;28;20032;-64
2022/10/31 00:48:04;;;;;;;22.73;11.00;;;;;;;;;;5072213;28;20036;-64
2022/10/31 00:50:30;;;;;;;20.55;10.88;;;;;;;;;;5072311;28;20044;-64
2022/10/31 00:52:57;;;;;;;18.30;11.13;;;;;;;;;;5070891;28;20051;-64
2022/10/31 00:55:24;;;;;;;18.10;11.05;;;;;;;;;;5071498;28;20051;-64
2022/10/31 00:57:49;;;;;;;20.85;11.38;;;;;;;;;;5072359;28;20475;-64
2022/10/31 01:00:16;;;;;;;20.13;10.65;;;;;;;;;;5072215;28;20040;-64
2022/10/31 01:02:42;;;;;;;20.58;11.15;;;;;;;;;;5070964;28;20039;-64
2022/10/31 01:05:08;;;;;;;18.00;10.13;;;;;;;;;;5072005;28;20115;-64
2022/10/31 01:07:37;;;;;;;24.02;10.32;;;;;;;;;;5072085;28;20040;-64
2022/10/31 01:10:04;;;;;;;20.42;10.88;;;;;;;;;;5071556;28;20483;-64
2022/10/31 01:12:30;;;;;;;20.13;11.73;;;;;;;;;;5070455;28;20127;-64
2022/10/31 01:14:55;;;;;;;24.38;12.68;;;;;;;;;;5070299;28;20428;-64
2022/10/31 01:17:21;;;;;;;25.65;11.82;;;;;;;;;;5070099;28;20455;-64
2022/10/31 01:19:47;;;;;;;23.60;11.60;;;;;;;;;;5071934;28;20044;-64
2022/10/31 01:22:13;;;;;;;23.55;12.02;;;;;;;;;;5071875;28;20044;-64
2022/10/31 01:24:39;;;;;;;21.73;10.95;;;;;;;;;;5071699;28;20036;-64
2022/10/31 01:27:05;;;;;;;23.35;12.07;;;;;;;;;;5070329;28;20040;-64
2022/10/31 01:29:31;;;;;;;20.38;12.45;;;;;;;;;;5070071;28;20067;-64
2022/10/31 01:31:57;;;;;;;24.70;12.75;;;;;;;;;;5070551;28;20046;-64
2022/10/31 01:34:23;;;;;;;24.88;13.05;;;;;;;;;;5071347;28;20040;-64
2022/10/31 01:36:51;;;;;;;22.42;12.60;;;;;;;;;;5071793;28;20459;-64
2022/10/31 01:39:18;;;;;;;22.30;12.02;;;;;;;;;;5071513;28;20458;-64
2022/10/31 01:41:45;;;;;;;21.63;12.55;;;;;;;;;;5071130;28;20079;-64
2022/10/31 01:44:14;;;;;;;25.25;13.20;;;;;;;;;;5070970;28;20052;-64
2022/10/31 01:46:40;;;;;;;26.23;12.60;;;;;;;;;;5071477;28;20483;-64
2022/10/31 01:49:09;;;;;;;22.08;12.95;;;;;;;;;;5069641;28;20048;-64
2022/10/31 01:51:37;;;;;;;23.98;13.10;;;;;;;;;;5071771;28;20036;-64
2022/10/31 01:54:07;;;;;;;20.25;11.65;;;;;;;;;;5071357;28;20118;-64
2022/10/31 01:56:35;;;;;;;19.95;11.85;;;;;;;;;;5070506;28;20128;-64
2022/10/31 01:59:02;;;;;;;23.83;12.50;;;;;;;;;;5071181;28;20470;-64
2022/10/31 02:01:28;;;;;;;21.60;12.60;;;;;;;;;;5070947;28;20036;-64
2022/10/31 02:03:55;;;;;;;25.52;12.18;;;;;;;;;;5070728;28;20490;-64
2022/10/31 02:06:36;;;;;;;22.13;11.90;;;;;;;;;;5070796;28;20291;-64
2022/10/31 02:09:04;;;;;;;24.27;11.70;;;;;;;;;;5070356;28;20051;-64
2022/10/31 02:11:30;;;;;;;19.08;11.75;;;;;;;;;;5071157;28;20307;-64
2022/10/31 02:13:56;;;;;;;20.63;11.75;;;;;;;;;;5070108;28;20044;-64
2022/10/31 02:16:22;;;;;;;22.05;11.13;;;;;;;;;;5070499;28;20051;-64
2022/10/31 02:18:48;;;;;;;20.73;10.90;;;;;;;;;;5068892;28;20044;-64
2022/10/31 02:21:17;;;;;;;23.25;11.20;;;;;;;;;;5068930;28;20033;-64
2022/10/31 02:23:46;;;;;;;19.40;11.13;;;;;;;;;;5070450;28;20036;-64
2022/10/31 02:26:24;;;;;;;16.45;10.60;;;;;;;;;;5070071;28;20470;-64
2022/10/31 02:28:50;;;;;;;19.80;10.55;;;;;;;;;;5069285;28;20037;-64
2022/10/31 02:31:24;;;;;;;19.33;11.32;;;;;;;;;;5069009;28;20118;-64
2022/10/31 02:33:59;;;;;;;17.30;11.07;;;;;;;;;;5070589;28;20032;-64
2022/10/31 02:36:32;;;;;;;18.33;10.90;;;;;;;;;;5070280;28;20068;-64
2022/10/31 02:39:01;;;;;;;16.73;10.48;;;;;;;;;;5068427;28;20040;-64
2022/10/31 02:41:38;;;;;;;19.80;11.20;;;;;;;;;;5070445;28;20047;-64
2022/10/31 02:44:21;;;;;;;18.90;10.93;;;;;;;;;;5068773;28;20044;-64
2022/10/31 02:47:01;;;;;;;19.20;10.57;;;;;;;;;;5069788;28;20037;-64
2022/10/31 02:49:27;;;;;;;20.13;11.18;;;;;;;;;;5068846;28;20131;-64
2022/10/31 02:51:53;;;;;;;15.90;9.85;;;;;;;;;;5069892;28;20109;-64
2022/10/31 02:54:23;;;;;;;22.15;9.93;;;;;;;;;;5069780;28;20037;-64
2022/10/31 02:56:50;;;;;;;19.38;11.10;;;;;;;;;;5070116;28;20032;-64
2022/10/31 02:59:17;;;;;;;20.05;10.05;;;;;;;;;;5070071;28;20087;-64
2022/10/31 03:01:57;;;;;;;22.40;11.10;;;;;;;;;;5069665;28;20040;-64
2022/10/31 03:04:25;;;;;;;17.58;10.52;;;;;;;;;;5070156;28;20075;-64
2022/10/31 03:06:59;;;;;;;21.90;9.93;;;;;;;;;;5069493;28;20052;-64
2022/10/31 03:09:54;;;;;;;19.88;10.60;;;;;;;;;;5069681;28;20098;-64
2022/10/31 03:12:39;;;;;;;16.75;10.10;;;;;;;;;;5055343;28;20060;-64
2022/10/31 03:15:17;;;;;;;17.60;9.63;;;;;;;;;;5069666;28;20055;-64
2022/10/31 03:17:50;;;;;;;15.25;9.45;;;;;;;;;;5067803;28;20036;-64
2022/10/31 03:20:18;;;;;;;19.05;10.25;;;;;;;;;;5069682;28;20376;-64
2022/10/31 03:22:44;;;;;;;19.23;10.60;;;;;;;;;;5069644;28;20102;-64
2022/10/31 03:25:12;;;;;;;21.85;10.25;;;;;;;;;;5068946;28;20141;-64
2022/10/31 03:27:39;;;;;;;16.90;9.50;;;;;;;;;;5067444;28;20047;-64
2022/10/31 03:30:07;;;;;;;24.88;9.77;;;;;;;;;;5068053;28;20402;-64
2022/10/31 03:32:36;;;;;;;19.67;10.80;;;;;;;;;;5069411;28;20107;-64
2022/10/31 03:35:04;;;;;;;19.92;10.20;;;;;;;;;;5069578;28;20040;-64
2022/10/31 03:37:32;;;;;;;14.63;10.50;;;;;;;;;;5068066;28;20589;-64
2022/10/31 03:39:59;;;;;;;23.02;10.57;;;;;;;;;;5069191;28;20454;-64
2022/10/31 03:42:26;;;;;;;19.52;9.57;;;;;;;;;;5069414;28;20040;-64
2022/10/31 03:44:56;;;;;;;14.35;10.15;;;;;;;;;;5069534;28;20041;-64
2022/10/31 03:47:22;;;;;;;17.38;10.55;;;;;;;;;;5067803;28;20177;-64
2022/10/31 03:49:49;;;;;;;18.20;10.10;;;;;;;;;;5067971;28;20084;-64
2022/10/31 03:52:36;;;;;;;16.75;10.35;;;;;;;;;;5069488;28;20040;-64
2022/10/31 03:55:05;;;;;;;21.38;11.77;;;;;;;;;;5069159;28;20123;-64
2022/10/31 03:57:34;;;;;;;16.08;9.60;;;;;;;;;;5069318;28;20529;-64
2022/10/31 04:00:10;;;;;;;17.83;9.13;;;;;;;;;;5069155;28;20044;-64
2022/10/31 04:02:39;;;;;;;19.23;8.93;;;;;;;;;;5101785;28;20089;-64
2022/10/31 04:05:06;;;;;;;14.77;8.48;;;;;;;;;;5069070;28;20045;-64
2022/10/31 04:07:37;;;;;;;17.25;10.13;;;;;;;;;;5068676;28;20040;-64
2022/10/31 04:10:06;;;;;;;15.80;10.45;;;;;;;;;;5069215;28;20076;-64
2022/10/31 04:12:34;;;;;;;16.25;10.35;;;;;;;;;;5068972;28;20044;-64
2022/10/31 04:15:01;;;;;;;17.08;10.93;;;;;;;;;;5068838;28;20123;-64
2022/10/31 04:17:30;;;;;;;20.45;11.43;;;;;;;;;;5067985;28;20464;-64
2022/10/31 04:19:56;;;;;;;18.33;11.48;;;;;;;;;;5068992;28;20047;-64
2022/10/31 04:22:22;;;;;;;19.88;10.90;;;;;;;;;;5067221;28;20061;-64
2022/10/31 04:24:47;;;;;;;19.02;11.93;;;;;;;;;;5069430;28;20036;-64
2022/10/31 04:27:14;;;;;;;19.20;11.13;;;;;;;;;;5067638;28;20045;-64
2022/10/31 04:29:40;;;;;;;18.40;10.57;;;;;;;;;;5067166;28;20063;-64
2022/10/31 04:32:06;;;;;;;19.27;11.07;;;;;;;;;;5069357;28;20088;-64
2022/10/31 04:34:32;;;;;;;14.40;10.43;;;;;;;;;;5068963;28;20120;-64
2022/10/31 04:36:58;;;;;;;17.70;10.30;;;;;;;;;;5084773;28;20544;-64
2022/10/31 04:39:24;;;;;;;15.02;10.27;;;;;;;;;;5072245;28;20036;-64
2022/10/31 04:41:50;;;;;;;14.40;9.68;;;;;;;;;;5105144;28;20097;-64
2022/10/31 04:44:16;;;;;;;15.30;10.05;;;;;;;;;;5105465;28;20482;-64
2022/10/31 04:46:42;;;;;;;16.50;10.45;;;;;;;;;;5072479;28;20563;-64
2022/10/31 04:49:08;;;;;;;14.60;10.20;;;;;;;;;;5072158;28;20048;-64
2022/10/31 04:51:34;;;;;;;14.68;10.45;;;;;;;;;;5072221;28;20072;-64
2022/10/31 04:54:00;;;;;;;12.57;9.75;;;;;;;;;;5070817;28;20119;-64
2022/10/31 04:56:26;;;;;;;13.32;8.68;;;;;;;;;;5072489;28;20045;-64
2022/10/31 04:58:52;;;;;;;13.90;9.30;;;;;;;;;;5104800;28;20118;-64
2022/10/31 05:01:18;;;;;;;13.95;9.05;;;;;;;;;;5104581;28;20502;-64
2022/10/31 05:03:44;;;;;;;13.10;8.57;;;;;;;;;;5072284;28;20028;-64
2022/10/31 05:06:10;;;;;;;14.27;9.68;;;;;;;;;;5071858;28;20846;-64
2022/10/31 05:08:36;;;;;;;13.20;9.23;;;;;;;;;;5071495;28;20086;-64
2022/10/31 05:11:02;;;;;;;14.23;9.15;;;;;;;;;;5072041;28;20047;-64
2022/10/31 05:13:29;;;;;;;12.85;9.15;;;;;;;;;;5070706;28;20143;-64
2022/10/31 05:15:54;;;;;;;16.25;8.00;;;;;;;;;;5071297;28;20036;-64
2022/10/31 05:18:21;;;;;;;10.55;7.20;;;;;;;;;;5070472;28;20055;-64
2022/10/31 05:20:47;;;;;;;8.80;6.68;;;;;;;;;;5071575;28;20090;-64
2022/10/31 05:23:13;;;;;;;9.38;6.20;;;;;;;;;;5071643;28;20036;-64
2022/10/31 05:25:40;;;;;;;9.98;5.57;;;;;;;;;;5071954;28;20032;-64
2022/10/31 05:28:06;;;;;;;9.50;5.72;;;;;;;;;;5071886;28;20039;-64
2022/10/31 05:30:32;;;;;;;9.30;6.03;;;;;;;;;;5071280;28;20049;-64
2022/10/31 05:32:58;;;;;;;9.75;4.78;;;;;;;;;;5051747;28;20055;-64
2022/10/31 05:35:26;;;;;;;6.95;5.03;;;;;;;;;;5051115;28;20128;-64
2022/10/31 05:37:52;;;;;;;9.13;5.07;;;;;;;;;;5050837;28;20072;-64
2022/10/31 05:40:19;;;;;;;6.20;5.20;;;;;;;;;;5050986;28;20049;-64
2022/10/31 05:42:45;;;;;;;6.00;4.60;;;;;;;;;;5051417;28;20423;-64
2022/10/31 05:45:12;;;;;;;9.93;4.72;;;;;;;;;;5051201;28;20083;-64
2022/10/31 05:47:39;;;;;;;7.40;5.00;;;;;;;;;;5052791;28;20132;-64
2022/10/31 05:50:05;;;;;;;9.05;6.00;;;;;;;;;;5051080;28;20084;-64
2022/10/31 05:52:31;;;;;;;9.48;5.38;;;;;;;;;;5052372;28;20098;-64
2022/10/31 05:54:57;;;;;;;8.80;5.57;;;;;;;;;;5051200;28;20498;-64
2022/10/31 05:57:23;;;;;;;9.32;5.72;;;;;;;;;;5052473;28;20045;-64
2022/10/31 05:59:52;;;;;;;10.13;5.55;;;;;;;;;;5051899;28;20078;-64
2022/10/31 06:02:19;;;;;;;7.40;5.55;;;;;;;;;;5052609;28;20160;-64
2022/10/31 06:04:45;;;;;;;11.60;6.05;;;;;;;;;;5052370;28;20357;-64
2022/10/31 06:07:11;;;;;;;8.57;5.93;;;;;;;;;;5062867;28;20139;-64
2022/10/31 06:09:37;;;;;;;8.20;5.97;;;;;;;;;;5072007;28;20043;-65
2022/10/31 06:12:03;;;;;;;8.68;5.93;;;;;;;;;;5071590;28;20132;-64
2022/10/31 06:14:29;;;;;;;9.27;5.70;;;;;;;;;;5070601;28;20037;-64
2022/10/31 06:16:56;;;;;;;8.25;5.80;;;;;;;;;;5070952;28;20047;-64
2022/10/31 06:19:22;;;;;;;8.48;5.70;;;;;;;;;;5070519;28;20055;-64
2022/10/31 06:21:48;;;;;;;7.97;5.53;;;;;;;;;;5070632;28;20040;-64
2022/10/31 06:24:14;;;;;;;16.35;6.20;;;;;;;;;;5069215;28;20419;-64
2022/10/31 06:26:41;;;;;;;8.18;5.88;;;;;;;;;;5070622;28;20725;-64
2022/10/31 06:29:06;;;;;;;16.17;6.35;;;;;;;;;;5070036;28;20036;-64
2022/10/31 06:31:32;;;;;;;13.77;6.07;;;;;;;;;;5070613;28;20431;-64
2022/10/31 06:33:58;;;;;;;10.25;6.22;;;;;;;;;;5103156;28;20063;-64
2022/10/31 06:36:24;;;;;;;24.80;7.13;;;;;;;;;;5070147;28;20036;-64
2022/10/31 06:38:50;;;;;;;35.67;7.07;;;;;;;;;;5070350;28;20044;-64
2022/10/31 06:41:16;;;;;;;23.35;6.85;;;;;;;;;;5070059;28;20510;-65
2022/10/31 06:43:42;;;;;;;20.90;6.50;;;;;;;;;;5102207;28;20087;-64
2022/10/31 06:46:08;;;;;;;25.00;6.60;;;;;;;;;;5070292;28;20119;-64
2022/10/31 06:48:35;;;;;;;13.48;7.00;;;;;;;;;;5070101;28;20040;-64
2022/10/31 06:51:01;;;;;;;21.45;7.72;;;;;;;;;;5069564;28;20506;-64
2022/10/31 06:53:29;;;;;;;72.22;9.10;;;;;;;;;;5102829;28;20044;-64
2022/10/31 06:55:55;;;;;;;39.40;8.70;;;;;;;;;;5070147;28;20047;-64
2022/10/31 06:58:21;;;;;;;26.77;7.95;;;;;;;;;;5069686;28;20040;-64
2022/10/31 07:00:47;;;;;;;14.75;6.80;;;;;;;;;;5102303;28;20060;-64
2022/10/31 07:03:15;;;;;;;10.10;6.45;;;;;;;;;;5070117;28;20468;-64
2022/10/31 07:05:41;;;;;;;8.98;6.50;;;;;;;;;;5069705;28;20052;-64
2022/10/31 07:08:08;;;;;;;11.63;6.38;;;;;;;;;;5069764;28;20285;-64
2022/10/31 07:10:35;;;;;;;13.35;7.18;;;;;;;;;;5068743;28;20480;-64
2022/10/31 07:13:02;;;;;;;13.50;6.75;;;;;;;;;;5069108;28;20056;-64
2022/10/31 07:15:29;;;;;;;25.73;7.63;;;;;;;;;;5070442;28;20047;-64
2022/10/31 07:18:00;;;;;;;9.50;7.40;;;;;;;;;;5070258;28;20060;-64
2022/10/31 07:20:26;;;;;;;15.50;6.93;;;;;;;;;;5070220;28;20040;-64
2022/10/31 07:22:52;;;;;;;12.82;7.70;;;;;;;;;;5069707;28;20474;-64
2022/10/31 07:25:18;;;;;;;15.52;7.45;;;;;;;;;;5069749;28;20056;-66
2022/10/31 07:27:44;;;;;;;10.10;6.93;;;;;;;;;;5087753;28;20044;-64
2022/10/31 07:30:11;;;;;;;11.32;7.68;;;;;;;;;;5068924;28;20036;-63
2022/10/31 07:32:47;;;;;;;9.68;7.60;;;;;;;;;;5022020;28;20628;-63
2022/10/31 07:35:18;;;;;;;11.02;7.90;;;;;;;;;;5067599;28;20052;-64
2022/10/31 07:37:44;;;;;;;10.35;7.97;;;;;;;;;;5068713;28;20032;-64
2022/10/31 07:40:10;;;;;;;13.77;8.45;;;;;;;;;;5051319;28;20157;-64
2022/10/31 07:42:40;;;;;;;25.73;9.23;;;;;;;;;;5066058;28;20049;-64
2022/10/31 07:45:07;;;;;;;10.73;9.07;;;;;;;;;;5068611;28;20382;-64
2022/10/31 07:47:43;;;;;;;12.27;9.50;;;;;;;;;;5068574;28;20085;-65
2022/10/31 07:50:10;;;;;;;11.38;10.18;;;;;;;;;;5067035;28;20048;-65
2022/10/31 07:52:36;;;;;;;12.93;10.18;;;;;;;;;;5060304;28;20033;-65
2022/10/31 07:55:03;;;;;;;14.48;10.30;;;;;;;;;;5068079;28;20044;-65
2022/10/31 07:57:29;;;;;;;11.23;9.77;;;;;;;;;;5067137;28;20433;-66
2022/10/31 07:59:55;;;;;;;12.07;10.18;;;;;;;;;;5066469;28;20043;-66
2022/10/31 08:02:22;;;;;;;14.30;10.70;;;;;;;;;;5068131;28;20053;-65
2022/10/31 08:04:48;;;;;;;12.40;10.27;;;;;;;;;;5067820;28;20540;-64
2022/10/31 08:07:14;;;;;;;14.98;11.32;;;;;;;;;;5068123;28;20074;-66
2022/10/31 08:09:40;;;;;;;16.05;11.30;;;;;;;;;;5068486;28;20105;-65
2022/10/31 08:12:06;;;;;;;14.27;11.43;;;;;;;;;;5066679;28;20872;-66
2022/10/31 08:14:32;;;;;;;19.98;14.05;;;;;;;;;;5057566;28;20089;-66
2022/10/31 08:16:58;;;;;;;20.80;13.80;;;;;;;;;;5068926;28;20135;-65
2022/10/31 08:19:24;;;;;;;21.92;15.80;;;;;;;;;;5070412;28;20052;-66
2022/10/31 08:21:54;;;;;;;20.70;13.80;;;;;;;;;;5070130;28;20048;-64
2022/10/31 08:24:21;;;;;;;22.85;15.93;;;;;;;;;;5070867;28;20106;-65
2022/10/31 08:26:47;;;;;;;24.33;16.80;;;;;;;;;;5070119;28;20040;-68
2022/10/31 08:29:14;;;;;;;32.00;17.70;;;;;;;;;;5071072;28;20074;-67
2022/10/31 08:31:40;;;;;;;23.05;16.42;;;;;;;;;;5069069;28;20044;-66
2022/10/31 08:34:06;;;;;;;22.15;16.92;;;;;;;;;;5070313;28;20094;-66
2022/10/31 08:36:32;;;;;;;23.58;16.05;;;;;;;;;;5071707;28;20048;-65
2022/10/31 08:38:58;;;;;;;23.55;16.63;;;;;;;;;;5070980;28;20479;-65
2022/10/31 08:41:24;;;;;;;22.85;15.85;;;;;;;;;;5070922;28;20051;-66
2022/10/31 08:43:50;;;;;;;23.27;16.67;;;;;;;;;;5069272;28;20105;-66
2022/10/31 08:46:17;;;;;;;20.60;15.45;;;;;;;;;;5071229;28;20048;-67
2022/10/31 08:48:43;;;;;;;19.98;15.80;;;;;;;;;;5069902;28;20044;-66
2022/10/31 08:51:10;;;;;;;26.80;16.80;;;;;;;;;;5068586;28;20043;-67
2022/10/31 08:53:36;;;;;;;27.58;17.10;;;;;;;;;;5069198;28;20095;-67
2022/10/31 08:56:02;;;;;;;24.38;17.33;;;;;;;;;;5070009;28;20472;-66
2022/10/31 08:58:28;;;;;;;26.45;18.17;;;;;;;;;;5064108;28;20043;-65
2022/10/31 09:00:56;;;;;;;28.60;17.63;;;;;;;;;;5067328;28;20404;-67
2022/10/31 09:03:26;;;;;;;25.50;17.42;;;;;;;;;;5067495;28;20060;-66
2022/10/31 09:05:55;;;;;;;26.13;18.05;;;;;;;;;;5071224;28;20095;-67
2022/10/31 09:08:21;;;;;;;27.23;20.30;;;;;;;;;;5069307;28;20491;-66
2022/10/31 09:10:47;;;;;;;29.55;20.48;;;;;;;;;;5069460;28;20040;-65
2022/10/31 09:13:14;;;;;;;31.80;19.90;;;;;;;;;;5070482;28;20057;-65
2022/10/31 09:15:42;;;;;;;31.02;21.17;;;;;;;;;;5071195;28;20806;-65
2022/10/31 09:18:08;;;;;;;31.50;21.35;;;;;;;;;;5071704;28;20087;-66
2022/10/31 09:20:35;;;;;;;38.55;24.52;;;;;;;;;;5070117;28;20048;-66
2022/10/31 09:23:06;;;;;;;32.58;21.85;;;;;;;;;;5071036;28;20090;-65
2022/10/31 09:25:34;;;;;;;35.03;21.75;;;;;;;;;;5070084;28;20467;-66
2022/10/31 09:28:01;;;;;;;39.92;23.13;;;;;;;;;;5070397;28;20083;-68
2022/10/31 09:30:28;;;;;;;34.45;22.40;;;;;;;;;;5070633;28;20048;-66
2022/10/31 09:32:57;;;;;;;35.58;23.50;;;;;;;;;;5068113;28;20048;-67
2022/10/31 09:35:23;;;;;;;39.90;22.77;;;;;;;;;;5065539;28;20375;-65
2022/10/31 09:37:56;;;;;;;32.42;21.98;;;;;;;;;;5070556;28;20047;-68
2022/10/31 09:40:32;;;;;;;35.95;22.67;;;;;;;;;;5086662;28;20044;-66
2022/10/31 09:43:04;;;;;;;33.03;21.98;;;;;;;;;;5068125;28;20128;-64
2022/10/31 09:45:30;;;;;;;34.28;21.67;;;;;;;;;;5067968;28;20041;-65
2022/10/31 09:47:59;;;;;;;38.60;23.70;;;;;;;;;;5067735;28;20091;-67
2022/10/31 09:50:28;;;;;;;35.85;22.90;;;;;;;;;;5069115;28;20080;-67
2022/10/31 09:53:13;;;;;;;36.88;23.85;;;;;;;;;;5067880;28;20031;-67
2022/10/31 09:55:41;;;;;;;35.70;23.48;;;;;;;;;;5068834;28;20152;-62
2022/10/31 09:58:15;;;;;;;32.03;21.90;;;;;;;;;;5059748;28;20033;-65
2022/10/31 10:00:42;;;;;;;35.88;23.65;;;;;;;;;;5068143;28;20119;-66
2022/10/31 10:03:17;;;;;;;34.35;22.63;;;;;;;;;;5068304;28;20036;-66
2022/10/31 10:05:50;;;;;;;37.03;22.95;;;;;;;;;;5068274;28;20068;-66
2022/10/31 10:08:19;;;;;;;32.50;21.83;;;;;;;;;;5069528;28;20039;-65
2022/10/31 10:10:51;;;;;;;39.60;23.55;;;;;;;;;;5069007;28;20375;-67
2022/10/31 10:13:30;;;;;;;36.38;23.67;;;;;;;;;;5069270;28;20064;-66
2022/10/31 10:16:01;;;;;;;34.95;23.05;;;;;;;;;;5067808;28;20052;-66
2022/10/31 10:18:32;;;;;;;37.33;23.50;;;;;;;;;;5069105;28;20056;-66
2022/10/31 10:20:58;;;;;;;38.97;23.90;;;;;;;;;;5066286;28;20040;-66
2022/10/31 10:23:48;;;;;;;37.58;22.92;;;;;;;;;;5067022;28;20466;-67
2022/10/31 10:26:18;;;;;;;37.60;24.20;;;;;;;;;;5050119;28;20059;-65
2022/10/31 10:28:50;;;;;;;34.80;23.27;;;;;;;;;;5070248;28;20135;-65
2022/10/31 10:31:17;;;;;;;38.72;23.75;;;;;;;;;;5070556;28;20040;-65
2022/10/31 10:33:56;;;;;;;32.05;23.08;;;;;;;;;;5069238;28;20032;-65
2022/10/31 10:36:26;;;;;;;37.97;22.33;;;;;;;;;;5068704;28;20068;-65
2022/10/31 10:38:54;;;;;;;32.45;21.73;;;;;;;;;;5070472;28;20036;-65
2022/10/31 10:41:21;;;;;;;31.23;21.10;;;;;;;;;;5069532;28;20178;-65
2022/10/31 10:43:54;;;;;;;30.63;22.15;;;;;;;;;;5068515;28;20554;-65
2022/10/31 10:49:07;;;;;;;30.27;20.38;;;;;;;;;;5069185;28;20041;-66
2022/10/31 10:51:52;;;;;;;35.72;20.35;;;;;;;;;;5068229;28;20066;-68
2022/10/31 10:54:37;;;;;;;27.75;19.80;;;;;;;;;;5069809;28;20391;-66
2022/10/31 10:57:09;;;;;;;27.80;17.98;;;;;;;;;;5068632;28;20068;-66
2022/10/31 10:59:36;;;;;;;28.05;18.85;;;;;;;;;;5067218;28;20115;-66
2022/10/31 11:02:04;;;;;;;27.15;17.85;;;;;;;;;;5090511;28;20056;-66
2022/10/31 11:04:36;;;;;;;24.75;17.27;;;;;;;;;;5064080;28;20123;-66
2022/10/31 11:07:08;;;;;;;27.25;16.83;;;;;;;;;;5064511;28;20377;-67
2022/10/31 11:09:34;;;;;;;25.33;14.93;;;;;;;;;;5067994;28;20951;-67
2022/10/31 11:12:06;;;;;;;22.88;14.95;;;;;;;;;;5066698;28;20082;-67
2022/10/31 11:14:34;;;;;;;20.98;14.23;;;;;;;;;;5057082;28;20498;-66
2022/10/31 11:17:19;;;;;;;23.58;14.57;;;;;;;;;;5062994;28;20137;-66
2022/10/31 11:19:45;;;;;;;24.88;15.05;;;;;;;;;;5061768;28;20044;-67
2022/10/31 11:22:18;;;;;;;21.23;13.23;;;;;;;;;;5053515;28;20500;-67
2022/10/31 11:24:44;;;;;;;21.65;13.73;;;;;;;;;;5065859;28;20044;-68
2022/10/31 11:27:30;;;;;;;22.42;13.63;;;;;;;;;;5060955;28;20143;-67
2022/10/31 11:30:04;;;;;;;23.20;14.25;;;;;;;;;;5058613;28;20167;-67
2022/10/31 11:32:30;;;;;;;21.25;13.10;;;;;;;;;;5059967;28;20653;-67
2022/10/31 11:35:01;;;;;;;22.38;14.18;;;;;;;;;;5059808;28;20379;-67
2022/10/31 11:37:29;;;;;;;25.63;13.43;;;;;;;;;;5069463;28;20480;-68
2022/10/31 11:40:04;;;;;;;20.88;13.50;;;;;;;;;;5068615;28;20052;-68
2022/10/31 11:42:35;;;;;;;24.23;13.68;;;;;;;;;;5069477;28;20832;-68
2022/10/31 11:45:02;;;;;;;23.25;13.85;;;;;;;;;;5069610;28;20055;-68
2022/10/31 11:47:29;;;;;;;24.48;13.68;;;;;;;;;;5068185;28;20040;-68
2022/10/31 11:49:56;;;;;;;20.67;12.90;;;;;;;;;;5069192;28;20384;-67
2022/10/31 11:52:26;;;;;;;22.80;12.35;;;;;;;;;;5069202;28;20036;-67
2022/10/31 11:54:55;;;;;;;23.63;12.02;;;;;;;;;;5067480;28;20048;-67
2022/10/31 11:57:24;;;;;;;20.58;11.77;;;;;;;;;;5067583;28;20379;-68
2022/10/31 11:59:54;;;;;;;23.17;12.00;;;;;;;;;;5069469;28;21004;-69
2022/10/31 12:02:20;;;;;;;19.27;12.18;;;;;;;;;;5069058;28;20048;-69
2022/10/31 12:04:53;;;;;;;20.60;11.38;;;;;;;;;;5068924;28;20052;-69
2022/10/31 12:07:19;;;;;;;17.38;10.52;;;;;;;;;;5069699;28;20070;-69
2022/10/31 12:09:45;;;;;;;15.45;9.55;;;;;;;;;;5069281;28;20106;-69
2022/10/31 12:12:16;;;;;;;17.40;10.18;;;;;;;;;;5060978;28;20059;-66
2022/10/31 12:14:51;;;;;;;18.02;10.70;;;;;;;;;;5069372;28;20059;-66
2022/10/31 12:17:26;;;;;;;18.58;10.30;;;;;;;;;;5061145;28;20051;-66
2022/10/31 12:19:55;;;;;;;16.65;10.23;;;;;;;;;;5062695;28;20040;-67
2022/10/31 12:22:39;;;;;;;15.57;9.38;;;;;;;;;;5062451;28;20056;-67
2022/10/31 12:25:08;;;;;;;14.55;8.65;;;;;;;;;;5063761;28;20122;-67
2022/10/31 12:27:56;;;;;;;17.92;9.68;;;;;;;;;;5063060;28;20139;-67
2022/10/31 12:30:22;;;;;;;15.35;9.52;;;;;;;;;;5068889;28;20502;-66
2022/10/31 12:32:51;;;;;;;17.75;9.50;;;;;;;;;;5062363;28;20065;-67
2022/10/31 12:35:26;;;;;;;17.60;9.20;;;;;;;;;;5059648;28;20036;-67
2022/10/31 12:37:55;;;;;;;16.70;9.80;;;;;;;;;;5064107;28;20067;-67
2022/10/31 12:40:40;;;;;;;19.00;9.55;;;;;;;;;;5064670;28;20105;-66
2022/10/31 12:43:18;;;;;;;18.25;9.35;;;;;;;;;;5067303;28;20068;-67
2022/10/31 12:45:50;;;;;;;18.20;9.38;;;;;;;;;;5066723;28;20064;-68
2022/10/31 12:48:16;;;;;;;;;;;;;;;;;;5067033;28;20039;-68
2022/10/31 12:50:56;;;;;;;18.77;9.00;;;;;;;;;;5068430;28;19924;-68
2022/10/31 12:53:47;;;;;;;17.52;9.57;;;;;;;;;;5067849;28;20456;-67
2022/10/31 12:56:31;;;;;;;16.70;8.32;;;;;;;;;;5067383;28;20093;-67
2022/10/31 12:59:03;;;;;;;14.32;8.18;;;;;;;;;;5070527;28;20040;-67
2022/10/31 13:01:35;;;;;;;18.65;9.75;;;;;;;;;;5062971;28;20509;-67
2022/10/31 13:04:20;;;;;;;23.33;9.65;;;;;;;;;;5071310;28;20044;-67
2022/10/31 13:06:50;;;;;;;16.67;8.63;;;;;;;;;;5072637;28;20093;-67
2022/10/31 13:09:18;;;;;;;17.95;8.93;;;;;;;;;;5068213;28;20043;-68
2022/10/31 13:11:47;;;;;;;21.38;8.77;;;;;;;;;;5072567;28;20123;-66
2022/10/31 13:14:25;;;;;;;18.88;8.20;;;;;;;;;;5071578;28;20052;-66
2022/10/31 13:16:52;;;;;;;16.42;8.85;;;;;;;;;;5069913;28;20045;-65
2022/10/31 13:19:24;;;;;;;11.73;7.63;;;;;;;;;;5067847;28;20044;-66
2022/10/31 13:21:50;;;;;;;;;;;;;;;;;;5071624;28;20071;-66
2022/10/31 13:24:21;;;;;;;11.75;6.38;;;;;;;;;;5071182;28;20031;-66
2022/10/31 13:26:55;;;;;;;11.82;6.07;;;;;;;;;;5072419;28;20075;-66
2022/10/31 13:29:24;;;;;;;12.40;5.50;;;;;;;;;;5071799;28;20037;-66
2022/10/31 13:31:50;;;;;;;12.00;6.22;;;;;;;;;;5064189;28;20088;-66
2022/10/31 13:34:25;;;;;;;12.50;5.78;;;;;;;;;;5063235;28;20029;-67
2022/10/31 13:36:52;;;;;;;11.35;5.60;;;;;;;;;;5066494;28;20052;-66
2022/10/31 13:39:28;;;;;;;15.70;6.53;;;;;;;;;;5055507;28;20045;-66
2022/10/31 13:41:54;;;;;;;10.82;5.55;;;;;;;;;;5072067;28;20097;-66
2022/10/31 13:44:25;;;;;;;14.23;6.15;;;;;;;;;;5071610;28;20040;-66
2022/10/31 13:46:52;;;;;;;13.05;6.28;;;;;;;;;;5071698;28;20051;-66
2022/10/31 13:49:47;;;;;;;11.85;6.07;;;;;;;;;;5071286;28;20048;-66
2022/10/31 13:52:13;;;;;;;13.35;5.53;;;;;;;;;;5065738;28;20044;-66
2022/10/31 13:54:40;;;;;;;10.15;5.78;;;;;;;;;;5069997;28;20131;-67
2022/10/31 13:57:07;;;;;;;13.38;6.47;;;;;;;;;;5066354;28;20071;-65
2022/10/31 13:59:36;;;;;;;9.40;5.65;;;;;;;;;;5071104;28;20044;-65
2022/10/31 14:02:12;;;;;;;13.05;6.30;;;;;;;;;;5070652;28;20040;-66
2022/10/31 14:04:45;;;;;;;12.13;5.60;;;;;;;;;;5103203;28;20079;-66
2022/10/31 14:07:10;;;;;;;;;;;;;;;;;;5067548;28;20052;-65
2022/10/31 14:09:39;;;;;;;13.98;6.22;;;;;;;;;;5067380;28;19985;-63
2022/10/31 14:12:07;;;;;;;11.23;6.00;;;;;;;;;;5066023;28;20037;-62
2022/10/31 14:14:35;;;;;;;16.83;6.90;;;;;;;;;;5069156;28;20053;-61
2022/10/31 14:17:02;;;;;;;13.55;6.93;;;;;;;;;;5067657;28;20044;-61
2022/10/31 14:19:28;;;;;;;13.80;7.35;;;;;;;;;;5065858;28;20044;-61
2022/10/31 14:21:54;;;;;;;12.45;7.03;;;;;;;;;;5069783;28;20029;-62
2022/10/31 14:24:23;;;;;;;11.13;6.70;;;;;;;;;;5063872;28;20036;-61
2022/10/31 14:26:56;;;;;;;12.23;6.50;;;;;;;;;;5059476;28;20036;-61
2022/10/31 14:29:32;;;;;;;16.33;7.18;;;;;;;;;;5063162;28;20079;-61
2022/10/31 14:32:10;;;;;;;12.30;7.32;;;;;;;;;;5064518;28;20036;-62
2022/10/31 14:34:39;;;;;;;13.90;7.25;;;;;;;;;;5070934;28;20036;-61
2022/10/31 14:37:24;;;;;;;12.75;6.55;;;;;;;;;;5069947;28;20091;-62